Britannia — VY5348 — position and weather

sailwx.info

Track history (hours):
 
Tides and Currents Weather Stations Pressure Air Temp Water Temp Dewpoint Dewpoint Depression Visibility Wind Speed Wind Dir Waves Ship Positions

Britannia

Last reported at 2015-Aug-30 07:33 UTC. Time now 2015-Aug-30 07:59 UTC.
Position N 49°18' W 123°08'.

Length 38 m; draft 5.4 m.

Type: Passenger vessel. MMSI: 316021351.

Date/timePositionNaut miles runAvg speedWind from/ knotsBaromVisibWave heightAir tempDewpointWater temp
2015-Aug-30 07:33N 49°18' W 123°08'0 0.0
2015-Aug-30 06:31N 49°18' W 123°08'0 0.0
2015-Aug-30 05:07N 49°18' W 123°08'0 0.5
2015-Aug-30 04:33N 49°18' W 123°08'7 6.8
2015-Aug-30 03:33N 49°18' W 122°57'4 4.0
2015-Aug-30 02:33N 49°18' W 123°03'3 3.0
2015-Aug-30 01:30N 49°18' W 123°08'2 0.3
2015-Aug-29 19:33N 49°19' W 123°09'7 7.3
2015-Aug-29 18:33N 49°24' W 123°17'6 4.6
2015-Aug-29 17:09N 49°31' W 123°18'1 2.4
2015-Aug-29 16:33N 49°29' W 123°18'10 9.8
2015-Aug-29 15:33N 49°20' W 123°16'6 5.5
2015-Aug-29 14:32N 49°18' W 123°08'0 0.0
2015-Aug-29 13:29N 49°18' W 123°08'0 0.0
2015-Aug-29 12:32N 49°18' W 123°08'0 0.0
2015-Aug-29 11:32N 49°18' W 123°08'0 0.0
2015-Aug-29 10:32N 49°18' W 123°08'0 0.0
2015-Aug-29 09:32N 49°18' W 123°08'0 0.0
2015-Aug-29 08:32N 49°18' W 123°08'0 0.0
2015-Aug-29 07:32N 49°18' W 123°08'0 0.0
2015-Aug-29 06:32N 49°18' W 123°08'0 0.0
2015-Aug-29 05:32N 49°18' W 123°08'0 0.0
2015-Aug-29 04:32N 49°18' W 123°08'0 0.0
2015-Aug-29 03:32N 49°18' W 123°08'0 0.0
2015-Aug-29 02:32N 49°18' W 123°08'0 0.0
2015-Aug-29 01:32N 49°18' W 123°08'0 0.0
2015-Aug-29 00:32N 49°18' W 123°08'0 0.0
2015-Aug-28 23:32N 49°18' W 123°08'0 0.0
2015-Aug-28 22:23N 49°18' W 123°08'0 0.0
2015-Aug-28 21:32N 49°18' W 123°08'0 0.0
2015-Aug-28 20:32N 49°18' W 123°08'0 0.0
2015-Aug-28 19:32N 49°18' W 123°08'0 0.0
2015-Aug-28 18:29N 49°18' W 123°08'0 0.0
2015-Aug-28 17:32N 49°18' W 123°08'0 0.0
2015-Aug-28 16:32N 49°18' W 123°08'0 0.0
2015-Aug-28 15:32N 49°18' W 123°08'0 0.0
2015-Aug-28 14:32N 49°18' W 123°08'0 0.0
2015-Aug-28 13:32N 49°18' W 123°08'0 0.0
2015-Aug-28 12:32N 49°18' W 123°08'0 0.0
2015-Aug-28 11:32N 49°18' W 123°08'0 0.0
2015-Aug-28 10:29N 49°18' W 123°08'0 0.0
2015-Aug-28 09:32N 49°18' W 123°08'0 0.0
2015-Aug-28 08:32N 49°18' W 123°08'0 0.0
2015-Aug-28 07:32N 49°18' W 123°08'0 0.0
2015-Aug-28 06:32N 49°18' W 123°08'0 0.0
2015-Aug-28 05:32N 49°18' W 123°08'0 0.0
2015-Aug-28 04:32N 49°18' W 123°08'4 4.2
2015-Aug-28 03:33N 49°18' W 123°02'4 3.6
2015-Aug-28 02:33N 49°18' W 122°56'8 7.5
2015-Aug-28 01:32N 49°18' W 123°08'0 0.0
2015-Aug-28 00:32N 49°18' W 123°08'0 0.0
2015-Aug-27 23:32N 49°18' W 123°08'0 0.0
2015-Aug-27 22:32N 49°18' W 123°08'0 0.0
2015-Aug-27 21:32N 49°18' W 123°08'0 0.0
2015-Aug-27 20:32N 49°18' W 123°08'0 0.0
2015-Aug-27 19:32N 49°18' W 123°08'0 0.0
2015-Aug-27 18:32N 49°18' W 123°08'0 0.0
2015-Aug-27 17:32N 49°18' W 123°08'0 0.0
2015-Aug-27 16:32N 49°18' W 123°08'0 0.0
2015-Aug-27 15:32N 49°18' W 123°08'0 0.0
2015-Aug-27 14:32N 49°18' W 123°08'0 0.0
2015-Aug-27 13:32N 49°18' W 123°08'0 0.0
2015-Aug-27 12:32N 49°18' W 123°08'0 0.0
2015-Aug-27 11:32N 49°18' W 123°08'0 0.0
2015-Aug-27 10:32N 49°18' W 123°08'0 0.0
2015-Aug-27 09:32N 49°18' W 123°08'0 0.0
2015-Aug-27 08:32N 49°18' W 123°08'0 0.0
2015-Aug-27 07:32N 49°18' W 123°08'0 0.0
2015-Aug-27 06:32N 49°18' W 123°08'0 0.0
2015-Aug-27 05:32N 49°18' W 123°08'0 0.0
2015-Aug-27 04:32N 49°18' W 123°08'0 0.0
2015-Aug-27 03:32N 49°18' W 123°08'0 0.0
2015-Aug-27 02:32N 49°18' W 123°08'0 0.0
2015-Aug-27 01:32N 49°18' W 123°08'0 0.0
2015-Aug-27 00:32N 49°18' W 123°08'0 0.0
2015-Aug-26 23:32N 49°18' W 123°08'0 0.0
2015-Aug-26 22:32N 49°18' W 123°08'0 0.0
2015-Aug-26 21:32N 49°18' W 123°08'0 0.0
2015-Aug-26 20:32N 49°18' W 123°08'0 0.0
2015-Aug-26 19:32N 49°18' W 123°08'0 0.0
2015-Aug-26 18:32N 49°18' W 123°08'0 0.0
2015-Aug-26 17:32N 49°18' W 123°08'0 0.0
2015-Aug-26 16:32N 49°18' W 123°08'0 0.0
2015-Aug-26 15:32N 49°18' W 123°08'0 0.0
2015-Aug-26 14:32N 49°18' W 123°08'0 0.0
2015-Aug-26 13:32N 49°18' W 123°08'0 0.0
2015-Aug-26 12:32N 49°18' W 123°08'0 0.0
2015-Aug-26 11:32N 49°18' W 123°08'0 0.0
2015-Aug-26 10:32N 49°18' W 123°08'0 0.0
2015-Aug-26 09:32N 49°18' W 123°08'0 0.0
2015-Aug-26 08:32N 49°18' W 123°08'0 0.0
2015-Aug-26 07:32N 49°18' W 123°08'0 0.0
2015-Aug-26 06:32N 49°18' W 123°08'0 0.0
2015-Aug-26 05:32N 49°18' W 123°08'0 0.0
2015-Aug-26 04:32N 49°18' W 123°08'0 0.0
2015-Aug-26 03:32N 49°18' W 123°08'0 0.0
2015-Aug-26 02:32N 49°18' W 123°08'0 0.0
2015-Aug-26 01:32N 49°18' W 123°08'0 0.0
2015-Aug-26 00:32N 49°18' W 123°08'0 0.0
2015-Aug-25 23:32N 49°18' W 123°08'0 0.0
2015-Aug-25 22:32N 49°18' W 123°08'0 0.0
2015-Aug-25 21:29N 49°18' W 123°08'0 0.0
2015-Aug-25 20:32N 49°18' W 123°08'0 0.0
2015-Aug-25 19:32N 49°18' W 123°08'0 0.0
2015-Aug-25 18:32N 49°18' W 123°08'0 0.0
2015-Aug-25 17:32N 49°18' W 123°08'0 0.0
2015-Aug-25 16:32N 49°18' W 123°08'0 0.0
2015-Aug-25 15:32N 49°18' W 123°08'0 0.0
2015-Aug-25 14:32N 49°18' W 123°08'0 0.0
2015-Aug-25 13:32N 49°18' W 123°08'0 0.0
2015-Aug-25 12:32N 49°18' W 123°08'0 0.0
2015-Aug-25 11:32N 49°18' W 123°08'0 0.0
2015-Aug-25 10:32N 49°18' W 123°08'0 0.0
2015-Aug-25 09:32N 49°18' W 123°08'0 0.0
2015-Aug-25 08:32N 49°18' W 123°08'0 0.0
2015-Aug-25 07:32N 49°18' W 123°08'0 0.0
2015-Aug-25 06:32N 49°18' W 123°08'0 0.0
2015-Aug-25 05:32N 49°18' W 123°08'0 0.0
2015-Aug-25 04:32N 49°18' W 123°08'0 0.0
2015-Aug-25 03:32N 49°18' W 123°08'0 0.0
2015-Aug-25 02:32N 49°18' W 123°08'0 0.0
2015-Aug-25 01:32N 49°18' W 123°08'0 0.0
2015-Aug-25 00:32N 49°18' W 123°08'0 0.0
2015-Aug-24 23:32N 49°18' W 123°08'0 0.0
2015-Aug-24 22:32N 49°18' W 123°08'0 0.0
2015-Aug-24 21:32N 49°18' W 123°08'1 0.8
2015-Aug-24 20:33N 49°18' W 123°07'9 9.3
2015-Aug-24 19:33N 49°24' W 123°18'7 7.0
2015-Aug-24 18:33N 49°24' W 123°29'3 2.8
2015-Aug-24 17:33N 49°25' W 123°25'9 8.9
2015-Aug-24 16:33N 49°20' W 123°15'5 4.7
2015-Aug-24 15:31N 49°18' W 123°08'0 0.0
2015-Aug-24 14:31N 49°18' W 123°08'0 0.0
2015-Aug-24 13:31N 49°18' W 123°08'0 0.0
2015-Aug-24 12:31N 49°18' W 123°08'0 0.0
2015-Aug-24 11:31N 49°18' W 123°08'0 0.0
2015-Aug-24 10:31N 49°18' W 123°08'0 0.0
2015-Aug-24 09:31N 49°18' W 123°08'0 0.0
2015-Aug-24 08:31N 49°18' W 123°08'0 0.0
2015-Aug-24 07:31N 49°18' W 123°08'0 0.0
2015-Aug-24 06:31N 49°18' W 123°08'0 0.0
2015-Aug-24 05:31N 49°18' W 123°08'0 0.0
2015-Aug-24 04:28N 49°18' W 123°08'0 0.0
2015-Aug-24 03:31N 49°18' W 123°08'0 0.0
2015-Aug-24 02:31N 49°18' W 123°08'0 0.0
2015-Aug-24 01:31N 49°18' W 123°08'0 0.0
2015-Aug-24 00:31N 49°18' W 123°08'0 0.0
2015-Aug-23 23:31N 49°18' W 123°08'0 0.0
2015-Aug-23 22:31N 49°18' W 123°08'0 0.0
2015-Aug-23 21:31N 49°18' W 123°08'0 0.0
2015-Aug-23 20:31N 49°18' W 123°08'0 0.0
2015-Aug-23 19:31N 49°18' W 123°08'0 0.0
2015-Aug-23 18:31N 49°18' W 123°08'0 0.0
2015-Aug-23 17:31N 49°18' W 123°08'0 0.0
2015-Aug-23 16:31N 49°18' W 123°08'0 0.0
2015-Aug-23 15:31N 49°18' W 123°08'0 0.0
2015-Aug-23 14:31N 49°18' W 123°08'0 0.0
2015-Aug-23 13:31N 49°18' W 123°08'0 0.0
2015-Aug-23 12:31N 49°18' W 123°08'0 0.0
2015-Aug-23 11:31N 49°18' W 123°08'0 0.0
2015-Aug-23 10:31N 49°18' W 123°08'0 0.0
2015-Aug-23 09:28N 49°18' W 123°08'0 0.0
2015-Aug-23 08:31N 49°18' W 123°08'0 0.0
2015-Aug-23 07:31N 49°18' W 123°08'1 1.5
2015-Aug-23 06:33N 49°19' W 123°10'1 1.4
2015-Aug-23 05:34N 49°19' W 123°11'3 2.6
2015-Aug-23 04:28N 49°18' W 123°08'0 0.0
2015-Aug-23 03:31N 49°18' W 123°08'0 0.0
2015-Aug-23 02:31N 49°18' W 123°08'0 0.0
2015-Aug-23 01:31N 49°18' W 123°08'0 0.0
2015-Aug-23 00:31N 49°18' W 123°08'0 0.0
2015-Aug-22 23:31N 49°18' W 123°08'0 0.0
2015-Aug-22 22:31N 49°18' W 123°08'0 0.0
2015-Aug-22 21:31N 49°18' W 123°08'0 0.0
2015-Aug-22 20:31N 49°18' W 123°08'1 1.0
2015-Aug-22 19:34N 49°19' W 123°08'9 9.4
2015-Aug-22 18:34N 49°25' W 123°18'6 5.4
2015-Aug-22 17:32N 49°31' W 123°18'1 1.5
2015-Aug-22 16:34N 49°29' W 123°18'10 9.9
2015-Aug-22 15:34N 49°20' W 123°15'5 5.0
2015-Aug-22 14:32N 49°18' W 123°08'0 0.0
2015-Aug-22 13:32N 49°18' W 123°08'0 0.0
2015-Aug-22 12:32N 49°18' W 123°08'0 0.0
2015-Aug-22 11:32N 49°18' W 123°08'0 0.0
2015-Aug-22 10:32N 49°18' W 123°08'0 0.0
2015-Aug-22 09:29N 49°18' W 123°08'0 0.0
2015-Aug-22 08:32N 49°18' W 123°08'0 0.0
2015-Aug-22 07:32N 49°18' W 123°08'0 0.0
2015-Aug-22 06:32N 49°18' W 123°08'0 0.0
2015-Aug-22 05:32N 49°18' W 123°08'0 0.0
2015-Aug-22 04:32N 49°18' W 123°08'0 0.0
2015-Aug-22 03:32N 49°18' W 123°08'0 0.0
2015-Aug-22 02:32N 49°18' W 123°08'0 0.0
2015-Aug-22 01:32N 49°18' W 123°08'0 0.0
2015-Aug-22 00:32N 49°18' W 123°08'0 0.0
2015-Aug-21 23:32N 49°18' W 123°08'0 0.0
2015-Aug-21 22:32N 49°18' W 123°08'1 1.3
2015-Aug-21 21:33N 49°18' W 123°06'7 6.7
2015-Aug-21 20:33N 49°20' W 122°56'5 4.6
2015-Aug-21 19:33N 49°24' W 122°52'8 8.1
2015-Aug-21 18:33N 49°18' W 123°01'5 4.8
2015-Aug-21 17:33N 49°18' W 123°08'0 0.0
2015-Aug-21 16:33N 49°18' W 123°08'0 0.0
2015-Aug-21 15:33N 49°18' W 123°08'0 0.0
2015-Aug-21 14:30N 49°18' W 123°08'0 0.0
2015-Aug-21 13:30N 49°18' W 123°08'0 0.0
2015-Aug-21 12:33N 49°18' W 123°08'0 0.0
2015-Aug-21 11:33N 49°18' W 123°08'0 0.0
2015-Aug-21 10:33N 49°18' W 123°08'0 0.0
2015-Aug-21 09:33N 49°18' W 123°08'0 0.0
2015-Aug-21 08:33N 49°18' W 123°08'0 0.0
2015-Aug-21 07:33N 49°18' W 123°08'0 0.0
2015-Aug-21 06:33N 49°18' W 123°08'0 0.0
2015-Aug-21 05:33N 49°18' W 123°08'0 0.0
2015-Aug-21 04:33N 49°18' W 123°08'0 0.0
2015-Aug-21 03:33N 49°18' W 123°08'0 0.0
2015-Aug-21 02:33N 49°18' W 123°08'0 0.0
2015-Aug-21 01:33N 49°18' W 123°08'0 0.0
2015-Aug-21 00:33N 49°18' W 123°08'0 0.0
2015-Aug-20 23:33N 49°18' W 123°08'0 0.0
2015-Aug-20 22:34N 49°18' W 123°08'0 0.0
2015-Aug-20 21:33N 49°18' W 123°08'0 0.0
2015-Aug-20 20:33N 49°18' W 123°08'0 0.0
2015-Aug-20 19:33N 49°18' W 123°08'0 0.0
2015-Aug-20 18:33N 49°18' W 123°08'0 0.0
2015-Aug-20 17:33N 49°18' W 123°08'0 0.0
2015-Aug-20 16:33N 49°18' W 123°08'0 0.0
2015-Aug-20 15:33N 49°18' W 123°08'0 0.0
2015-Aug-20 14:33N 49°18' W 123°08'0 0.0
2015-Aug-20 13:33N 49°18' W 123°08'0 0.0
2015-Aug-20 12:33N 49°18' W 123°08'0 0.0
2015-Aug-20 11:33N 49°18' W 123°08'0 0.0
2015-Aug-20 10:33N 49°18' W 123°08'0 0.0
2015-Aug-20 09:33N 49°18' W 123°08'0 0.0
2015-Aug-20 08:30N 49°18' W 123°08'0 0.0
2015-Aug-20 07:33N 49°18' W 123°08'  
Track history (hours):
 
Tides and Currents Weather Stations Pressure Air Temp Water Temp Dewpoint Dewpoint Depression Visibility Wind Speed Wind Dir Waves Ship Positions

Britannia

Last reported at 2015-Aug-30 07:33 UTC. Time now 2015-Aug-30 07:59 UTC.
Position N 49°18' W 123°08'.

Length 38 m; draft 5.4 m.

Type: Passenger vessel. MMSI: 316021351.

Date/timePositionNaut miles runAvg speedWind from/ knotsBaromVisibWave heightAir tempDewpointWater temp
2015-Aug-30 07:33N 49°18' W 123°08'0 0.0
2015-Aug-30 06:31N 49°18' W 123°08'0 0.0
2015-Aug-30 05:07N 49°18' W 123°08'0 0.5
2015-Aug-30 04:33N 49°18' W 123°08'7 6.8
2015-Aug-30 03:33N 49°18' W 122°57'4 4.0
2015-Aug-30 02:33N 49°18' W 123°03'3 3.0
2015-Aug-30 01:30N 49°18' W 123°08'2 0.3
2015-Aug-29 19:33N 49°19' W 123°09'7 7.3
2015-Aug-29 18:33N 49°24' W 123°17'6 4.6
2015-Aug-29 17:09N 49°31' W 123°18'1 2.4
2015-Aug-29 16:33N 49°29' W 123°18'10 9.8
2015-Aug-29 15:33N 49°20' W 123°16'6 5.5
2015-Aug-29 14:32N 49°18' W 123°08'0 0.0
2015-Aug-29 13:29N 49°18' W 123°08'0 0.0
2015-Aug-29 12:32N 49°18' W 123°08'0 0.0
2015-Aug-29 11:32N 49°18' W 123°08'0 0.0
2015-Aug-29 10:32N 49°18' W 123°08'0 0.0
2015-Aug-29 09:32N 49°18' W 123°08'0 0.0
2015-Aug-29 08:32N 49°18' W 123°08'0 0.0
2015-Aug-29 07:32N 49°18' W 123°08'0 0.0
2015-Aug-29 06:32N 49°18' W 123°08'0 0.0
2015-Aug-29 05:32N 49°18' W 123°08'0 0.0
2015-Aug-29 04:32N 49°18' W 123°08'0 0.0
2015-Aug-29 03:32N 49°18' W 123°08'0 0.0
2015-Aug-29 02:32N 49°18' W 123°08'0 0.0
2015-Aug-29 01:32N 49°18' W 123°08'0 0.0
2015-Aug-29 00:32N 49°18' W 123°08'0 0.0
2015-Aug-28 23:32N 49°18' W 123°08'0 0.0
2015-Aug-28 22:23N 49°18' W 123°08'0 0.0
2015-Aug-28 21:32N 49°18' W 123°08'0 0.0
2015-Aug-28 20:32N 49°18' W 123°08'0 0.0
2015-Aug-28 19:32N 49°18' W 123°08'0 0.0
2015-Aug-28 18:29N 49°18' W 123°08'0 0.0
2015-Aug-28 17:32N 49°18' W 123°08'0 0.0
2015-Aug-28 16:32N 49°18' W 123°08'0 0.0
2015-Aug-28 15:32N 49°18' W 123°08'0 0.0
2015-Aug-28 14:32N 49°18' W 123°08'0 0.0
2015-Aug-28 13:32N 49°18' W 123°08'0 0.0
2015-Aug-28 12:32N 49°18' W 123°08'0 0.0
2015-Aug-28 11:32N 49°18' W 123°08'0 0.0
2015-Aug-28 10:29N 49°18' W 123°08'0 0.0
2015-Aug-28 09:32N 49°18' W 123°08'0 0.0
2015-Aug-28 08:32N 49°18' W 123°08'0 0.0
2015-Aug-28 07:32N 49°18' W 123°08'0 0.0
2015-Aug-28 06:32N 49°18' W 123°08'0 0.0
2015-Aug-28 05:32N 49°18' W 123°08'0 0.0
2015-Aug-28 04:32N 49°18' W 123°08'4 4.2
2015-Aug-28 03:33N 49°18' W 123°02'4 3.6
2015-Aug-28 02:33N 49°18' W 122°56'8 7.5
2015-Aug-28 01:32N 49°18' W 123°08'0 0.0
2015-Aug-28 00:32N 49°18' W 123°08'0 0.0
2015-Aug-27 23:32N 49°18' W 123°08'0 0.0
2015-Aug-27 22:32N 49°18' W 123°08'0 0.0
2015-Aug-27 21:32N 49°18' W 123°08'0 0.0
2015-Aug-27 20:32N 49°18' W 123°08'0 0.0
2015-Aug-27 19:32N 49°18' W 123°08'0 0.0
2015-Aug-27 18:32N 49°18' W 123°08'0 0.0
2015-Aug-27 17:32N 49°18' W 123°08'0 0.0
2015-Aug-27 16:32N 49°18' W 123°08'0 0.0
2015-Aug-27 15:32N 49°18' W 123°08'0 0.0
2015-Aug-27 14:32N 49°18' W 123°08'0 0.0
2015-Aug-27 13:32N 49°18' W 123°08'0 0.0
2015-Aug-27 12:32N 49°18' W 123°08'0 0.0
2015-Aug-27 11:32N 49°18' W 123°08'0 0.0
2015-Aug-27 10:32N 49°18' W 123°08'0 0.0
2015-Aug-27 09:32N 49°18' W 123°08'0 0.0
2015-Aug-27 08:32N 49°18' W 123°08'0 0.0
2015-Aug-27 07:32N 49°18' W 123°08'0 0.0
2015-Aug-27 06:32N 49°18' W 123°08'0 0.0
2015-Aug-27 05:32N 49°18' W 123°08'0 0.0
2015-Aug-27 04:32N 49°18' W 123°08'0 0.0
2015-Aug-27 03:32N 49°18' W 123°08'0 0.0
2015-Aug-27 02:32N 49°18' W 123°08'0 0.0
2015-Aug-27 01:32N 49°18' W 123°08'0 0.0
2015-Aug-27 00:32N 49°18' W 123°08'0 0.0
2015-Aug-26 23:32N 49°18' W 123°08'0 0.0
2015-Aug-26 22:32N 49°18' W 123°08'0 0.0
2015-Aug-26 21:32N 49°18' W 123°08'0 0.0
2015-Aug-26 20:32N 49°18' W 123°08'0 0.0
2015-Aug-26 19:32N 49°18' W 123°08'0 0.0
2015-Aug-26 18:32N 49°18' W 123°08'0 0.0
2015-Aug-26 17:32N 49°18' W 123°08'0 0.0
2015-Aug-26 16:32N 49°18' W 123°08'0 0.0
2015-Aug-26 15:32N 49°18' W 123°08'0 0.0
2015-Aug-26 14:32N 49°18' W 123°08'0 0.0
2015-Aug-26 13:32N 49°18' W 123°08'0 0.0
2015-Aug-26 12:32N 49°18' W 123°08'0 0.0
2015-Aug-26 11:32N 49°18' W 123°08'0 0.0
2015-Aug-26 10:32N 49°18' W 123°08'0 0.0
2015-Aug-26 09:32N 49°18' W 123°08'0 0.0
2015-Aug-26 08:32N 49°18' W 123°08'0 0.0
2015-Aug-26 07:32N 49°18' W 123°08'0 0.0
2015-Aug-26 06:32N 49°18' W 123°08'0 0.0
2015-Aug-26 05:32N 49°18' W 123°08'0 0.0
2015-Aug-26 04:32N 49°18' W 123°08'0 0.0
2015-Aug-26 03:32N 49°18' W 123°08'0 0.0
2015-Aug-26 02:32N 49°18' W 123°08'0 0.0
2015-Aug-26 01:32N 49°18' W 123°08'0 0.0
2015-Aug-26 00:32N 49°18' W 123°08'0 0.0
2015-Aug-25 23:32N 49°18' W 123°08'0 0.0
2015-Aug-25 22:32N 49°18' W 123°08'0 0.0
2015-Aug-25 21:29N 49°18' W 123°08'0 0.0
2015-Aug-25 20:32N 49°18' W 123°08'0 0.0
2015-Aug-25 19:32N 49°18' W 123°08'0 0.0
2015-Aug-25 18:32N 49°18' W 123°08'0 0.0
2015-Aug-25 17:32N 49°18' W 123°08'0 0.0
2015-Aug-25 16:32N 49°18' W 123°08'0 0.0
2015-Aug-25 15:32N 49°18' W 123°08'0 0.0
2015-Aug-25 14:32N 49°18' W 123°08'0 0.0
2015-Aug-25 13:32N 49°18' W 123°08'0 0.0
2015-Aug-25 12:32N 49°18' W 123°08'0 0.0
2015-Aug-25 11:32N 49°18' W 123°08'0 0.0
2015-Aug-25 10:32N 49°18' W 123°08'0 0.0
2015-Aug-25 09:32N 49°18' W 123°08'0 0.0
2015-Aug-25 08:32N 49°18' W 123°08'0 0.0
2015-Aug-25 07:32N 49°18' W 123°08'0 0.0
2015-Aug-25 06:32N 49°18' W 123°08'0 0.0
2015-Aug-25 05:32N 49°18' W 123°08'0 0.0
2015-Aug-25 04:32N 49°18' W 123°08'0 0.0
2015-Aug-25 03:32N 49°18' W 123°08'0 0.0
2015-Aug-25 02:32N 49°18' W 123°08'0 0.0
2015-Aug-25 01:32N 49°18' W 123°08'0 0.0
2015-Aug-25 00:32N 49°18' W 123°08'0 0.0
2015-Aug-24 23:32N 49°18' W 123°08'0 0.0
2015-Aug-24 22:32N 49°18' W 123°08'0 0.0
2015-Aug-24 21:32N 49°18' W 123°08'1 0.8
2015-Aug-24 20:33N 49°18' W 123°07'9 9.3
2015-Aug-24 19:33N 49°24' W 123°18'7 7.0
2015-Aug-24 18:33N 49°24' W 123°29'3 2.8
2015-Aug-24 17:33N 49°25' W 123°25'9 8.9
2015-Aug-24 16:33N 49°20' W 123°15'5 4.7
2015-Aug-24 15:31N 49°18' W 123°08'0 0.0
2015-Aug-24 14:31N 49°18' W 123°08'0 0.0
2015-Aug-24 13:31N 49°18' W 123°08'0 0.0
2015-Aug-24 12:31N 49°18' W 123°08'0 0.0
2015-Aug-24 11:31N 49°18' W 123°08'0 0.0
2015-Aug-24 10:31N 49°18' W 123°08'0 0.0
2015-Aug-24 09:31N 49°18' W 123°08'0 0.0
2015-Aug-24 08:31N 49°18' W 123°08'0 0.0
2015-Aug-24 07:31N 49°18' W 123°08'0 0.0
2015-Aug-24 06:31N 49°18' W 123°08'0 0.0
2015-Aug-24 05:31N 49°18' W 123°08'0 0.0
2015-Aug-24 04:28N 49°18' W 123°08'0 0.0
2015-Aug-24 03:31N 49°18' W 123°08'0 0.0
2015-Aug-24 02:31N 49°18' W 123°08'0 0.0
2015-Aug-24 01:31N 49°18' W 123°08'0 0.0
2015-Aug-24 00:31N 49°18' W 123°08'0 0.0
2015-Aug-23 23:31N 49°18' W 123°08'0 0.0
2015-Aug-23 22:31N 49°18' W 123°08'0 0.0
2015-Aug-23 21:31N 49°18' W 123°08'0 0.0
2015-Aug-23 20:31N 49°18' W 123°08'0 0.0
2015-Aug-23 19:31N 49°18' W 123°08'0 0.0
2015-Aug-23 18:31N 49°18' W 123°08'0 0.0
2015-Aug-23 17:31N 49°18' W 123°08'0 0.0
2015-Aug-23 16:31N 49°18' W 123°08'0 0.0
2015-Aug-23 15:31N 49°18' W 123°08'0 0.0
2015-Aug-23 14:31N 49°18' W 123°08'0 0.0
2015-Aug-23 13:31N 49°18' W 123°08'0 0.0
2015-Aug-23 12:31N 49°18' W 123°08'0 0.0
2015-Aug-23 11:31N 49°18' W 123°08'0 0.0
2015-Aug-23 10:31N 49°18' W 123°08'0 0.0
2015-Aug-23 09:28N 49°18' W 123°08'0 0.0
2015-Aug-23 08:31N 49°18' W 123°08'0 0.0
2015-Aug-23 07:31N 49°18' W 123°08'1 1.5
2015-Aug-23 06:33N 49°19' W 123°10'1 1.4
2015-Aug-23 05:34N 49°19' W 123°11'3 2.6
2015-Aug-23 04:28N 49°18' W 123°08'0 0.0
2015-Aug-23 03:31N 49°18' W 123°08'0 0.0
2015-Aug-23 02:31N 49°18' W 123°08'0 0.0
2015-Aug-23 01:31N 49°18' W 123°08'0 0.0
2015-Aug-23 00:31N 49°18' W 123°08'0 0.0
2015-Aug-22 23:31N 49°18' W 123°08'0 0.0
2015-Aug-22 22:31N 49°18' W 123°08'0 0.0
2015-Aug-22 21:31N 49°18' W 123°08'0 0.0
2015-Aug-22 20:31N 49°18' W 123°08'1 1.0
2015-Aug-22 19:34N 49°19' W 123°08'9 9.4
2015-Aug-22 18:34N 49°25' W 123°18'6 5.4
2015-Aug-22 17:32N 49°31' W 123°18'1 1.5
2015-Aug-22 16:34N 49°29' W 123°18'10 9.9
2015-Aug-22 15:34N 49°20' W 123°15'5 5.0
2015-Aug-22 14:32N 49°18' W 123°08'0 0.0
2015-Aug-22 13:32N 49°18' W 123°08'0 0.0
2015-Aug-22 12:32N 49°18' W 123°08'0 0.0
2015-Aug-22 11:32N 49°18' W 123°08'0 0.0
2015-Aug-22 10:32N 49°18' W 123°08'0 0.0
2015-Aug-22 09:29N 49°18' W 123°08'0 0.0
2015-Aug-22 08:32N 49°18' W 123°08'0 0.0
2015-Aug-22 07:32N 49°18' W 123°08'0 0.0
2015-Aug-22 06:32N 49°18' W 123°08'0 0.0
2015-Aug-22 05:32N 49°18' W 123°08'0 0.0
2015-Aug-22 04:32N 49°18' W 123°08'0 0.0
2015-Aug-22 03:32N 49°18' W 123°08'0 0.0
2015-Aug-22 02:32N 49°18' W 123°08'0 0.0
2015-Aug-22 01:32N 49°18' W 123°08'0 0.0
2015-Aug-22 00:32N 49°18' W 123°08'0 0.0
2015-Aug-21 23:32N 49°18' W 123°08'0 0.0
2015-Aug-21 22:32N 49°18' W 123°08'1 1.3
2015-Aug-21 21:33N 49°18' W 123°06'7 6.7
2015-Aug-21 20:33N 49°20' W 122°56'5 4.6
2015-Aug-21 19:33N 49°24' W 122°52'8 8.1
2015-Aug-21 18:33N 49°18' W 123°01'5 4.8
2015-Aug-21 17:33N 49°18' W 123°08'0 0.0
2015-Aug-21 16:33N 49°18' W 123°08'0 0.0
2015-Aug-21 15:33N 49°18' W 123°08'0 0.0
2015-Aug-21 14:30N 49°18' W 123°08'0 0.0
2015-Aug-21 13:30N 49°18' W 123°08'0 0.0
2015-Aug-21 12:33N 49°18' W 123°08'0 0.0
2015-Aug-21 11:33N 49°18' W 123°08'0 0.0
2015-Aug-21 10:33N 49°18' W 123°08'0 0.0
2015-Aug-21 09:33N 49°18' W 123°08'0 0.0
2015-Aug-21 08:33N 49°18' W 123°08'0 0.0
2015-Aug-21 07:33N 49°18' W 123°08'0 0.0
2015-Aug-21 06:33N 49°18' W 123°08'0 0.0
2015-Aug-21 05:33N 49°18' W 123°08'0 0.0
2015-Aug-21 04:33N 49°18' W 123°08'0 0.0
2015-Aug-21 03:33N 49°18' W 123°08'0 0.0
2015-Aug-21 02:33N 49°18' W 123°08'0 0.0
2015-Aug-21 01:33N 49°18' W 123°08'0 0.0
2015-Aug-21 00:33N 49°18' W 123°08'0 0.0
2015-Aug-20 23:33N 49°18' W 123°08'0 0.0
2015-Aug-20 22:34N 49°18' W 123°08'0 0.0
2015-Aug-20 21:33N 49°18' W 123°08'0 0.0
2015-Aug-20 20:33N 49°18' W 123°08'0 0.0
2015-Aug-20 19:33N 49°18' W 123°08'0 0.0
2015-Aug-20 18:33N 49°18' W 123°08'0 0.0
2015-Aug-20 17:33N 49°18' W 123°08'0 0.0
2015-Aug-20 16:33N 49°18' W 123°08'0 0.0
2015-Aug-20 15:33N 49°18' W 123°08'0 0.0
2015-Aug-20 14:33N 49°18' W 123°08'0 0.0
2015-Aug-20 13:33N 49°18' W 123°08'0 0.0
2015-Aug-20 12:33N 49°18' W 123°08'0 0.0
2015-Aug-20 11:33N 49°18' W 123°08'0 0.0
2015-Aug-20 10:33N 49°18' W 123°08'0 0.0
2015-Aug-20 09:33N 49°18' W 123°08'0 0.0
2015-Aug-20 08:30N 49°18' W 123°08'0 0.0
2015-Aug-20 07:33N 49°18' W 123°08'  

Dump ship's entire track history